sensor_id;sensor_type;location;lat;lon;timestamp;temperature;humidity
22948;DHT22;11640;52.520;13.456;2022-08-11T00:05:18;20.00;95.50
22948;DHT22;11640;52.520;13.456;2022-08-11T00:10:25;19.90;95.40
22948;DHT22;11640;52.520;13.456;2022-08-11T00:15:43;19.90;95.70
22948;DHT22;11640;52.520;13.456;2022-08-11T00:20:45;19.90;96.10
22948;DHT22;11640;52.520;13.456;2022-08-11T00:25:51;19.70;96.50
22948;DHT22;11640;52.520;13.456;2022-08-11T00:30:55;19.60;96.90
22948;DHT22;11640;52.520;13.456;2022-08-11T00:35:59;19.50;96.90
22948;DHT22;11640;52.520;13.456;2022-08-11T01:37:01;18.90;99.90
22948;DHT22;11640;52.520;13.456;2022-08-11T01:42:31;18.80;99.90
22948;DHT22;11640;52.520;13.456;2022-08-11T01:59:13;18.70;99.90
22948;DHT22;11640;52.520;13.456;2022-08-11T02:04:33;18.60;99.90
22948;DHT22;11640;52.520;13.456;2022-08-11T02:09:59;18.50;99.90
22948;DHT22;11640;52.520;13.456;2022-08-11T02:15:32;18.50;99.90
22948;DHT22;11640;52.520;13.456;2022-08-11T02:20:56;18.40;99.90
22948;DHT22;11640;52.520;13.456;2022-08-11T02:26:41;18.30;99.90
22948;DHT22;11640;52.520;13.456;2022-08-11T02:32:06;18.30;99.90
22948;DHT22;11640;52.520;13.456;2022-08-11T02:43:12;18.20;99.90
22948;DHT22;11640;52.520;13.456;2022-08-11T02:48:49;18.20;99.90
22948;DHT22;11640;52.520;13.456;2022-08-11T02:59:55;18.10;99.90
22948;DHT22;11640;52.520;13.456;2022-08-11T03:21:46;17.80;99.90
22948;DHT22;11640;52.520;13.456;2022-08-11T03:33:21;17.70;99.90
22948;DHT22;11640;52.520;13.456;2022-08-11T03:49:47;17.60;99.90
22948;DHT22;11640;52.520;13.456;2022-08-11T04:23:02;17.50;99.90
22948;DHT22;11640;52.520;13.456;2022-08-11T04:28:32;17.50;99.90
22948;DHT22;11640;52.520;13.456;2022-08-11T04:39:56;17.50;99.90
22948;DHT22;11640;52.520;13.456;2022-08-11T04:56:22;17.70;99.90
22948;DHT22;11640;52.520;13.456;2022-08-11T05:13:06;17.90;99.90
22948;DHT22;11640;52.520;13.456;2022-08-11T05:18:28;17.90;99.90
22948;DHT22;11640;52.520;13.456;2022-08-11T05:24:02;18.00;99.90
22948;DHT22;11640;52.520;13.456;2022-08-11T05:29:44;18.10;99.90
22948;DHT22;11640;52.520;13.456;2022-08-11T05:35:05;18.30;99.90
22948;DHT22;11640;52.520;13.456;2022-08-11T05:40:11;18.40;99.90
22948;DHT22;11640;52.520;13.456;2022-08-11T05:45:33;18.40;99.90
22948;DHT22;11640;52.520;13.456;2022-08-11T05:51:05;18.60;99.90
22948;DHT22;11640;52.520;13.456;2022-08-11T05:56:33;18.80;99.90
22948;DHT22;11640;52.520;13.456;2022-08-11T06:01:35;18.80;99.90
22948;DHT22;11640;52.520;13.456;2022-08-11T06:06:39;18.90;99.90
22948;DHT22;11640;52.520;13.456;2022-08-11T06:11:47;19.10;99.90
22948;DHT22;11640;52.520;13.456;2022-08-11T06:16:51;19.20;99.90
22948;DHT22;11640;52.520;13.456;2022-08-11T06:21:55;19.40;99.90
22948;DHT22;11640;52.520;13.456;2022-08-11T06:26:58;19.60;99.90
22948;DHT22;11640;52.520;13.456;2022-08-11T06:32:16;19.80;99.90
22948;DHT22;11640;52.520;13.456;2022-08-11T06:47:44;20.40;99.90
22948;DHT22;11640;52.520;13.456;2022-08-11T06:52:51;20.50;99.90
22948;DHT22;11640;52.520;13.456;2022-08-11T06:57:54;20.70;99.90
22948;DHT22;11640;52.520;13.456;2022-08-11T07:03:16;20.80;99.90
22948;DHT22;11640;52.520;13.456;2022-08-11T07:14:03;21.20;99.90
22948;DHT22;11640;52.520;13.456;2022-08-11T07:19:26;21.40;99.90
22948;DHT22;11640;52.520;13.456;2022-08-11T07:25:23;21.60;99.90
22948;DHT22;11640;52.520;13.456;2022-08-11T07:30:45;21.90;99.90
22948;DHT22;11640;52.520;13.456;2022-08-11T07:35:55;22.10;99.90
22948;DHT22;11640;52.520;13.456;2022-08-11T07:40:58;22.30;99.90
22948;DHT22;11640;52.520;13.456;2022-08-11T07:46:02;22.60;99.90
22948;DHT22;11640;52.520;13.456;2022-08-11T07:51:23;22.80;99.90
22948;DHT22;11640;52.520;13.456;2022-08-11T07:56:44;23.10;99.90
22948;DHT22;11640;52.520;13.456;2022-08-11T08:01:57;23.20;99.90
22948;DHT22;11640;52.520;13.456;2022-08-11T08:07:20;23.50;99.90
22948;DHT22;11640;52.520;13.456;2022-08-11T08:12:41;23.70;99.80
22948;DHT22;11640;52.520;13.456;2022-08-11T08:18:04;23.90;98.80
22948;DHT22;11640;52.520;13.456;2022-08-11T08:23:26;24.10;97.80
22948;DHT22;11640;52.520;13.456;2022-08-11T08:28:35;24.80;97.00
22948;DHT22;11640;52.520;13.456;2022-08-11T08:33:39;25.00;95.70
22948;DHT22;11640;52.520;13.456;2022-08-11T08:38:47;25.00;95.20
22948;DHT22;11640;52.520;13.456;2022-08-11T08:43:54;25.20;94.50
22948;DHT22;11640;52.520;13.456;2022-08-11T08:49:18;25.30;93.50
22948;DHT22;11640;52.520;13.456;2022-08-11T08:54:38;25.40;93.40
22948;DHT22;11640;52.520;13.456;2022-08-11T08:59:44;25.50;93.10
22948;DHT22;11640;52.520;13.456;2022-08-11T09:04:50;25.60;92.40
22948;DHT22;11640;52.520;13.456;2022-08-11T09:09:53;25.70;92.30
22948;DHT22;11640;52.520;13.456;2022-08-11T09:14:57;25.70;92.20
22948;DHT22;11640;52.520;13.456;2022-08-11T09:20:07;25.70;90.80
22948;DHT22;11640;52.520;13.456;2022-08-11T09:25:11;25.90;90.30
22948;DHT22;11640;52.520;13.456;2022-08-11T09:30:31;26.10;90.60
22948;DHT22;11640;52.520;13.456;2022-08-11T09:35:36;26.10;87.10
22948;DHT22;11640;52.520;13.456;2022-08-11T09:40:41;26.00;85.20
22948;DHT22;11640;52.520;13.456;2022-08-11T09:45:50;26.00;83.90
22948;DHT22;11640;52.520;13.456;2022-08-11T09:50:59;26.20;87.30
22948;DHT22;11640;52.520;13.456;2022-08-11T09:56:02;26.30;83.20
22948;DHT22;11640;52.520;13.456;2022-08-11T10:01:29;26.60;82.90
22948;DHT22;11640;52.520;13.456;2022-08-11T10:06:33;26.70;81.50
22948;DHT22;11640;52.520;13.456;2022-08-11T10:11:57;26.80;80.60
22948;DHT22;11640;52.520;13.456;2022-08-11T10:17:03;26.90;82.70
22948;DHT22;11640;52.520;13.456;2022-08-11T10:22:07;27.10;76.90
22948;DHT22;11640;52.520;13.456;2022-08-11T10:27:28;27.20;75.60
22948;DHT22;11640;52.520;13.456;2022-08-11T10:32:51;27.00;74.20
22948;DHT22;11640;52.520;13.456;2022-08-11T10:38:19;27.10;75.70
22948;DHT22;11640;52.520;13.456;2022-08-11T10:43:21;27.40;72.30
22948;DHT22;11640;52.520;13.456;2022-08-11T10:48:43;27.60;74.00
22948;DHT22;11640;52.520;13.456;2022-08-11T10:53:50;27.70;70.60
22948;DHT22;11640;52.520;13.456;2022-08-11T10:59:13;27.70;70.70
22948;DHT22;11640;52.520;13.456;2022-08-11T11:04:26;27.60;69.60
22948;DHT22;11640;52.520;13.456;2022-08-11T11:09:46;27.30;68.50
22948;DHT22;11640;52.520;13.456;2022-08-11T11:14:51;27.30;70.10
22948;DHT22;11640;52.520;13.456;2022-08-11T11:36:28;27.90;64.00
22948;DHT22;11640;52.520;13.456;2022-08-11T11:41:33;27.90;59.90
22948;DHT22;11640;52.520;13.456;2022-08-11T11:46:36;28.00;60.50
22948;DHT22;11640;52.520;13.456;2022-08-11T11:51:40;28.10;62.10
22948;DHT22;11640;52.520;13.456;2022-08-11T11:56:43;28.10;61.70
22948;DHT22;11640;52.520;13.456;2022-08-11T12:01:46;28.10;63.90
22948;DHT22;11640;52.520;13.456;2022-08-11T12:06:51;27.90;62.50
22948;DHT22;11640;52.520;13.456;2022-08-11T12:12:13;27.90;59.80
22948;DHT22;11640;52.520;13.456;2022-08-11T12:17:34;28.10;59.70
22948;DHT22;11640;52.520;13.456;2022-08-11T12:22:36;28.10;59.50
22948;DHT22;11640;52.520;13.456;2022-08-11T12:27:57;28.30;57.40
22948;DHT22;11640;52.520;13.456;2022-08-11T12:32:59;28.60;54.80
22948;DHT22;11640;52.520;13.456;2022-08-11T12:38:02;29.00;56.40
22948;DHT22;11640;52.520;13.456;2022-08-11T12:43:18;29.20;56.80
22948;DHT22;11640;52.520;13.456;2022-08-11T12:48:45;29.30;57.80
22948;DHT22;11640;52.520;13.456;2022-08-11T12:59:54;30.30;55.80
22948;DHT22;11640;52.520;13.456;2022-08-11T13:05:15;29.90;54.70
22948;DHT22;11640;52.520;13.456;2022-08-11T13:10:18;30.40;53.60
22948;DHT22;11640;52.520;13.456;2022-08-11T13:15:41;30.90;52.30
22948;DHT22;11640;52.520;13.456;2022-08-11T13:20:44;31.20;50.80
22948;DHT22;11640;52.520;13.456;2022-08-11T13:25:50;31.20;50.80
22948;DHT22;11640;52.520;13.456;2022-08-11T13:30:53;31.80;49.20
22948;DHT22;11640;52.520;13.456;2022-08-11T13:36:20;32.10;47.80
22948;DHT22;11640;52.520;13.456;2022-08-11T13:41:25;33.10;47.70
22948;DHT22;11640;52.520;13.456;2022-08-11T13:46:42;32.70;44.70
22948;DHT22;11640;52.520;13.456;2022-08-11T13:51:46;32.90;44.10
22948;DHT22;11640;52.520;13.456;2022-08-11T13:56:55;32.90;43.20
22948;DHT22;11640;52.520;13.456;2022-08-11T14:02:00;33.00;42.10
22948;DHT22;11640;52.520;13.456;2022-08-11T14:07:29;33.30;41.00
22948;DHT22;11640;52.520;13.456;2022-08-11T14:12:36;33.30;40.10
22948;DHT22;11640;52.520;13.456;2022-08-11T14:18:04;33.40;40.00
22948;DHT22;11640;52.520;13.456;2022-08-11T14:23:09;34.20;38.60
22948;DHT22;11640;52.520;13.456;2022-08-11T14:28:14;34.90;37.70
22948;DHT22;11640;52.520;13.456;2022-08-11T14:33:35;34.40;37.20
22948;DHT22;11640;52.520;13.456;2022-08-11T14:39:01;34.40;36.70
22948;DHT22;11640;52.520;13.456;2022-08-11T14:44:05;33.80;36.70
22948;DHT22;11640;52.520;13.456;2022-08-11T14:49:27;33.60;36.50
22948;DHT22;11640;52.520;13.456;2022-08-11T14:54:31;34.30;35.80
22948;DHT22;11640;52.520;13.456;2022-08-11T14:59:52;34.10;36.00
22948;DHT22;11640;52.520;13.456;2022-08-11T15:04:55;34.90;37.80
22948;DHT22;11640;52.520;13.456;2022-08-11T15:10:01;35.60;33.80
22948;DHT22;11640;52.520;13.456;2022-08-11T15:15:14;36.50;33.60
22948;DHT22;11640;52.520;13.456;2022-08-11T15:20:35;35.00;32.90
22948;DHT22;11640;52.520;13.456;2022-08-11T15:26:17;34.60;32.70
22948;DHT22;11640;52.520;13.456;2022-08-11T15:31:21;34.60;32.40
22948;DHT22;11640;52.520;13.456;2022-08-11T15:36:33;34.90;31.70
22948;DHT22;11640;52.520;13.456;2022-08-11T15:42:00;33.00;33.30
22948;DHT22;11640;52.520;13.456;2022-08-11T15:47:26;32.00;33.90
22948;DHT22;11640;52.520;13.456;2022-08-11T15:52:34;31.60;34.70
22948;DHT22;11640;52.520;13.456;2022-08-11T15:57:40;31.60;35.30
22948;DHT22;11640;52.520;13.456;2022-08-11T16:03:02;31.60;35.60
22948;DHT22;11640;52.520;13.456;2022-08-11T16:08:24;31.40;33.90
22948;DHT22;11640;52.520;13.456;2022-08-11T16:13:36;30.80;33.80
22948;DHT22;11640;52.520;13.456;2022-08-11T16:18:53;30.20;35.00
22948;DHT22;11640;52.520;13.456;2022-08-11T16:24:00;30.00;35.50
22948;DHT22;11640;52.520;13.456;2022-08-11T16:29:02;29.60;35.70
22948;DHT22;11640;52.520;13.456;2022-08-11T16:34:04;29.60;37.50
22948;DHT22;11640;52.520;13.456;2022-08-11T16:39:27;29.10;38.60
22948;DHT22;11640;52.520;13.456;2022-08-11T16:44:29;29.00;37.60
22948;DHT22;11640;52.520;13.456;2022-08-11T16:49:53;28.90;37.90
22948;DHT22;11640;52.520;13.456;2022-08-11T16:54:56;28.80;38.80
22948;DHT22;11640;52.520;13.456;2022-08-11T17:00:03;28.80;39.30
22948;DHT22;11640;52.520;13.456;2022-08-11T17:05:18;28.60;39.50
22948;DHT22;11640;52.520;13.456;2022-08-11T17:11:07;28.60;38.50
22948;DHT22;11640;52.520;13.456;2022-08-11T17:16:33;28.50;37.70
22948;DHT22;11640;52.520;13.456;2022-08-11T17:21:47;28.30;38.40
22948;DHT22;11640;52.520;13.456;2022-08-11T17:27:08;28.20;37.90
22948;DHT22;11640;52.520;13.456;2022-08-11T17:32:16;28.10;39.20
22948;DHT22;11640;52.520;13.456;2022-08-11T17:38:07;28.00;38.90
22948;DHT22;11640;52.520;13.456;2022-08-11T17:43:10;27.70;39.80
22948;DHT22;11640;52.520;13.456;2022-08-11T17:48:35;27.50;39.80
22948;DHT22;11640;52.520;13.456;2022-08-11T17:53:48;27.40;40.60
22948;DHT22;11640;52.520;13.456;2022-08-11T17:59:25;27.20;41.20
22948;DHT22;11640;52.520;13.456;2022-08-11T18:04:51;27.10;42.80
22948;DHT22;11640;52.520;13.456;2022-08-11T18:09:53;26.90;42.20
22948;DHT22;11640;52.520;13.456;2022-08-11T18:15:14;26.70;42.10
22948;DHT22;11640;52.520;13.456;2022-08-11T18:20:35;26.60;42.70
22948;DHT22;11640;52.520;13.456;2022-08-11T18:25:58;26.40;43.00
22948;DHT22;11640;52.520;13.456;2022-08-11T18:31:20;26.20;43.20
22948;DHT22;11640;52.520;13.456;2022-08-11T18:36:51;26.00;43.80
22948;DHT22;11640;52.520;13.456;2022-08-11T18:42:24;25.90;45.10
22948;DHT22;11640;52.520;13.456;2022-08-11T18:47:51;25.60;45.20
22948;DHT22;11640;52.520;13.456;2022-08-11T18:53:16;25.50;47.20
22948;DHT22;11640;52.520;13.456;2022-08-11T18:58:37;25.20;47.20
22948;DHT22;11640;52.520;13.456;2022-08-11T19:04:05;25.10;48.00
22948;DHT22;11640;52.520;13.456;2022-08-11T19:09:31;24.90;49.10
22948;DHT22;11640;52.520;13.456;2022-08-11T19:14:56;24.60;49.90
22948;DHT22;11640;52.520;13.456;2022-08-11T19:20:19;24.50;50.90
22948;DHT22;11640;52.520;13.456;2022-08-11T19:25:46;24.40;52.50
22948;DHT22;11640;52.520;13.456;2022-08-11T19:31:07;24.20;53.30
22948;DHT22;11640;52.520;13.456;2022-08-11T19:36:29;24.00;53.60
22948;DHT22;11640;52.520;13.456;2022-08-11T19:41:51;23.90;53.90
22948;DHT22;11640;52.520;13.456;2022-08-11T19:47:13;23.80;55.10
22948;DHT22;11640;52.520;13.456;2022-08-11T19:52:36;23.60;55.60
22948;DHT22;11640;52.520;13.456;2022-08-11T19:57:58;23.50;56.20
22948;DHT22;11640;52.520;13.456;2022-08-11T20:03:20;23.40;58.10
22948;DHT22;11640;52.520;13.456;2022-08-11T20:08:42;23.30;58.20
22948;DHT22;11640;52.520;13.456;2022-08-11T20:14:05;23.20;59.40
22948;DHT22;11640;52.520;13.456;2022-08-11T20:19:27;23.10;59.30
22948;DHT22;11640;52.520;13.456;2022-08-11T20:24:57;23.40;56.50
22948;DHT22;11640;52.520;13.456;2022-08-11T20:30:18;23.50;56.60
22948;DHT22;11640;52.520;13.456;2022-08-11T20:35:38;23.40;56.40
22948;DHT22;11640;52.520;13.456;2022-08-11T20:41:00;23.40;56.70
22948;DHT22;11640;52.520;13.456;2022-08-11T20:46:22;23.40;56.40
22948;DHT22;11640;52.520;13.456;2022-08-11T20:51:44;23.40;57.60
22948;DHT22;11640;52.520;13.456;2022-08-11T20:57:08;23.40;57.40
22948;DHT22;11640;52.520;13.456;2022-08-11T21:02:50;23.40;59.00
22948;DHT22;11640;52.520;13.456;2022-08-11T21:08:13;23.30;63.40
22948;DHT22;11640;52.520;13.456;2022-08-11T21:13:38;23.20;68.40
22948;DHT22;11640;52.520;13.456;2022-08-11T21:19:13;23.10;70.40
22948;DHT22;11640;52.520;13.456;2022-08-11T21:24:56;23.00;72.20
22948;DHT22;11640;52.520;13.456;2022-08-11T21:30:17;22.90;73.10
22948;DHT22;11640;52.520;13.456;2022-08-11T21:35:38;22.90;73.90
22948;DHT22;11640;52.520;13.456;2022-08-11T21:40:59;22.80;74.90
22948;DHT22;11640;52.520;13.456;2022-08-11T21:46:21;22.80;76.00
22948;DHT22;11640;52.520;13.456;2022-08-11T21:51:42;22.70;77.30
22948;DHT22;11640;52.520;13.456;2022-08-11T21:57:03;22.60;78.70
22948;DHT22;11640;52.520;13.456;2022-08-11T22:02:25;22.60;79.90
22948;DHT22;11640;52.520;13.456;2022-08-11T22:07:54;22.50;80.90
22948;DHT22;11640;52.520;13.456;2022-08-11T22:13:15;22.50;82.00
22948;DHT22;11640;52.520;13.456;2022-08-11T22:18:36;22.30;83.50
22948;DHT22;11640;52.520;13.456;2022-08-11T22:23:57;22.10;84.70
22948;DHT22;11640;52.520;13.456;2022-08-11T22:29:30;22.00;85.80
22948;DHT22;11640;52.520;13.456;2022-08-11T22:34:52;22.10;86.20
22948;DHT22;11640;52.520;13.456;2022-08-11T22:40:14;21.90;87.10
22948;DHT22;11640;52.520;13.456;2022-08-11T22:45:34;21.90;87.90
22948;DHT22;11640;52.520;13.456;2022-08-11T22:50:56;21.70;89.00
22948;DHT22;11640;52.520;13.456;2022-08-11T22:56:18;21.60;90.00
22948;DHT22;11640;52.520;13.456;2022-08-11T23:01:39;21.50;90.30
22948;DHT22;11640;52.520;13.456;2022-08-11T23:07:01;21.50;90.90
22948;DHT22;11640;52.520;13.456;2022-08-11T23:12:42;21.40;91.20
22948;DHT22;11640;52.520;13.456;2022-08-11T23:18:04;21.30;91.60
22948;DHT22;11640;52.520;13.456;2022-08-11T23:23:27;21.20;92.00
22948;DHT22;11640;52.520;13.456;2022-08-11T23:28:47;21.20;92.40
22948;DHT22;11640;52.520;13.456;2022-08-11T23:34:14;21.10;92.70
22948;DHT22;11640;52.520;13.456;2022-08-11T23:39:57;21.00;93.10
22948;DHT22;11640;52.520;13.456;2022-08-11T23:45:21;20.90;93.50
22948;DHT22;11640;52.520;13.456;2022-08-11T23:50:43;20.80;93.90
22948;DHT22;11640;52.520;13.456;2022-08-11T23:56:04;20.70;94.40
